17 mei 2022

Tijd Code Weer Temp. Zicht Wolken Wind METAR/SPECI
08:55
V
13 °C 10 km+ 3.600 ft 260°   260° 3 kt METAR EHHW 170655Z AUTO 26003KT 9999 BKN036/// BKN043/// 13/11 Q1019
08:25
V
13 °C 10 km+ 3.800 ft 260°   260° 4 kt METAR EHHW 170625Z AUTO 26004KT 9999 BKN038/// BKN044/// 13/11 Q1019
07:55
V
12 °C 10 km+ - 240°   240° 5 kt METAR EHHW 170555Z AUTO 24005KT 9999 FEW039/// 12/11 Q1018
07:25
V
12 °C 10 km+ - 230°   230° 5 kt METAR EHHW 170525Z AUTO 23005KT 200V260 9999 NSC 12/11 Q1018
06:55
V
12 °C 10 km+ - 240°   240° 4 kt METAR EHHW 170455Z AUTO 24004KT 190V280 9999 NSC 12/11 Q1018
06:25
V
12 °C 10 km+ - 210°   210° 7 kt METAR EHHW 170425Z AUTO 21007KT 9999 SCT042/// 12/11 Q1018
05:55
V
12 °C 10 km+ 4.200 ft 220°   220° 4 kt METAR EHHW 170355Z AUTO 22004KT 190V250 9999 FEW037/// BKN042/// BKN046/// 12/11 Q1018
05:25
V
13 °C 10 km+ - 250°   250° 6 kt METAR EHHW 170325Z AUTO 25006KT 9999 FEW037/// 13/11 Q1017
04:55
V
13 °C 10 km+ - 260°   260° 5 kt METAR EHHW 170255Z AUTO 26005KT 9999 NSC 13/11 Q1017
04:25
V
12 °C 10 km+ - 240°   240° 5 kt METAR EHHW 170225Z AUTO 24005KT 210V280 9999 NSC 12/11 Q1017
03:55
V
12 °C 10 km+ - 230°   230° 5 kt METAR EHHW 170155Z AUTO 23005KT 200V280 9999 NCD 12/11 Q1017
03:25
V
13 °C 10 km+ - 230°   230° 5 kt METAR EHHW 170125Z AUTO 23005KT 200V270 9999 NCD 13/11 Q1017
02:55
V
13 °C 10 km+ - 240°   240° 3 kt METAR EHHW 170055Z AUTO 24003KT 200V270 9999 NCD 13/11 Q1017
02:25
V
13 °C 10 km+ - 250°   250° 7 kt METAR EHHW 170025Z AUTO 25007KT 9999 NSC 13/12 Q1017
01:55
V
13 °C 10 km+ - 240°   240° 7 kt METAR EHHW 162355Z AUTO 24007KT 210V280 9999 FEW011/// 13/12 Q1017
01:25
V
13 °C 9 km - 230°   230° 6 kt METAR EHHW 162325Z AUTO 23006KT 200V280 9000 SCT011/// SCT048/// 13/12 Q1017
00:55
M
13 °C 9 km 1.100 ft 240°   240° 7 kt METAR EHHW 162255Z AUTO 24007KT 200V270 9000 BKN011/// OVC038/// 13/12 Q1017
00:25
M
13 °C 9 km 1.000 ft 240°   240° 5 kt METAR EHHW 162225Z AUTO 24005KT 210V280 9000 BKN010/// BKN015/// OVC030/// 13/12 Q1017

16 mei 2022

Tijd Code Weer Temp. Zicht Wolken Wind METAR/SPECI
23:55
M
13 °C 9 km 1.400 ft 240°   240° 6 kt METAR EHHW 162155Z AUTO 24006KT 200V290 9000 FEW009/// SCT011/// BKN014/// 13/11 Q1017
23:25
M
13 °C 10 km+ 1.400 ft 250°   250° 7 kt METAR EHHW 162125Z AUTO 25007KT 220V280 9999 FEW002/// SCT006/// BKN014/// 13/12 Q1017
22:55
L
12 °C 9 km 400 ft 240°   240° 8 kt METAR EHHW 162055Z AUTO 24008KT 200V280 9000 FEW002/// SCT003/// BKN004/// 12/12 Q1017
22:25
L
12 °C 7 km 200 ft 200°   200° 4 kt METAR EHHW 162025Z AUTO 20004KT 7000 FEW000/// BKN002/// OVC004/// 12/12 Q1016
21:55
L
13 °C 7 km 300 ft Var   Var 2 kt METAR EHHW 161955Z AUTO VRB02KT 7000 SCT000/// OVC003/// 13/12 Q1016
21:25
L
13 °C 7 km 300 ft 220°   220° 6 kt METAR EHHW 161925Z AUTO 22006KT 7000 BKN000/// BKN003/// OVC004/// 13/12 Q1016
20:55
L
13 °C 9 km 400 ft 250°   250° 6 kt METAR EHHW 161855Z AUTO 25006KT 200V270 9000 SCT000/// SCT002/// OVC004/// 13/12 Q1015
20:25
L
13 °C 8 km 400 ft 240°   240° 6 kt METAR EHHW 161825Z AUTO 24006KT 200V280 8000 -RA FEW000/// SCT002/// BKN004/// 13/12 Q1015
19:55
I
13 °C 10 km+ 700 ft 240°   240° 6 kt METAR EHHW 161755Z AUTO 24006KT 200V280 9999 FEW002/// SCT004/// BKN007/// 13/12 Q1015
19:25
V
14 °C 10 km+ - 240°   240° 7 kt METAR EHHW 161725Z AUTO 24007KT 200V280 9999 FEW006/// 14/12 Q1015
18:55
V
14 °C 10 km+ - 200°   200° 11 kt METAR EHHW 161655Z AUTO 20011KT 9999 NSC 14/11 Q1015
18:25
V
15 °C 10 km+ - 150°   150° 6 kt METAR EHHW 161625Z AUTO 15006KT 100V190 9999 NSC 15/10 Q1015
17:55
V
15 °C 10 km+ - 120°   120° 6 kt METAR EHHW 161555Z AUTO 12006KT 070V210 9999 NSC 15/10 Q1015
17:25
V
14 °C 10 km+ - 130°   130° 11 kt METAR EHHW 161525Z AUTO 13011KT 070V190 9999 NSC 14/10 Q1015
16:55
V
14 °C 10 km+ - 100°   100° 13 kt METAR EHHW 161455Z AUTO 10013KT 050V130 9999 NSC 14/10 Q1014
16:25
V
14 °C 10 km+ - 090°   090° 21 kt METAR EHHW 161425Z AUTO 09021KT 9999 NSC 14/10 Q1014
15:55
V
14 °C 10 km+ - 090°   090° 22 kt METAR EHHW 161355Z AUTO 09022KT 9999 NSC 14/10 Q1014
15:25
V
14 °C 10 km+ - 090°   090° 25 kt METAR EHHW 161325Z AUTO 09025KT 9999 NSC 14/10 Q1014
14:55
V
14 °C 10 km+ - 090°   090° 22 kt METAR EHHW 161255Z AUTO 09022KT 9999 NSC 14/09 Q1014
14:25
V
13 °C 10 km+ - 090°   090° 20 kt METAR EHHW 161225Z AUTO 09020KT 9999 NSC 13/09 Q1015
13:55
V
13 °C 10 km+ - 090°   090° 22 kt METAR EHHW 161155Z AUTO 09022KT 9999 NSC 13/09 Q1015
13:25
V
13 °C 10 km+ - 090°   090° 21 kt METAR EHHW 161125Z AUTO 09021KT 9999 NSC 13/09 Q1015
12:55
V
13 °C 10 km+ - 090°   090° 19 kt METAR EHHW 161055Z AUTO 09019KT 9999 NSC 13/09 Q1015
12:25
V
13 °C 10 km+ - 090°   090° 21 kt METAR EHHW 161025Z AUTO 09021KT 9999 NSC 13/09 Q1015
11:55
V
13 °C 10 km+ - 090°   090° 19 kt METAR EHHW 160955Z AUTO 09019KT 9999 NSC 13/09 Q1015
11:25
V
13 °C 10 km+ - 090°   090° 18 kt METAR EHHW 160925Z AUTO 09018KT 9999 NSC 13/09 Q1015
10:55
V
13 °C 10 km+ - 090°   090° 16 kt METAR EHHW 160855Z AUTO 09016KT 040V140 9999 NSC 13/09 Q1015
10:25
V
13 °C 10 km+ - 090°   090° 16 kt METAR EHHW 160825Z AUTO 09016KT 050V130 9999 NSC 13/09 Q1015
09:55
V
13 °C 10 km+ - 090°   090° 18 kt METAR EHHW 160755Z AUTO 09018KT 9999 NSC 13/08 Q1015
09:25
V
12 °C 10 km+ - 090°   090° 17 kt METAR EHHW 160725Z AUTO 09017KT 050V130 9999 NSC 12/08 Q1015
08:55
V
13 °C 10 km+ - 090°   090° 15 kt METAR EHHW 160655Z AUTO 09015KT 040V120 9999 NSC 13/08 Q1015
08:25
V
12 °C 10 km+ - 090°   090° 17 kt METAR EHHW 160625Z AUTO 09017KT 030V140 9999 NSC 12/09 Q1015
07:55
V
12 °C 10 km+ - 090°   090° 16 kt METAR EHHW 160555Z AUTO 09016KT 060V130 9999 NSC 12/08 Q1015
07:25
V
13 °C 10 km+ - 100°   100° 20 kt METAR EHHW 160525Z AUTO 10020KT 9999 NSC 13/08 Q1015
06:55
V
13 °C 10 km+ - 100°   100° 19 kt METAR EHHW 160455Z AUTO 10019KT 060V130 9999 NSC 13/08 Q1015
06:25
V
12 °C 10 km+ - 100°   100° 19 kt METAR EHHW 160425Z AUTO 10019KT 050V110 9999 NSC 12/08 Q1015
05:55
V
12 °C 10 km+ - 100°   100° 21 kt METAR EHHW 160355Z AUTO 10021KT 9999 NSC 12/08 Q1015
05:25
V
13 °C 10 km+ - 100°   100° 21 kt METAR EHHW 160325Z AUTO 10021KT 9999 NSC 13/08 Q1016
04:55
V
13 °C 10 km+ - 100°   100° 18 kt METAR EHHW 160255Z AUTO 10018KT 060V120 9999 NSC 13/08 Q1016
04:25
V
13 °C 10 km+ - 090°   090° 15 kt METAR EHHW 160225Z AUTO 09015KT 050V120 9999 NSC 13/08 Q1016
03:55
V
13 °C 10 km+ - 090°   090° 19 kt METAR EHHW 160155Z AUTO 09019KT 060V120 9999 NSC 13/08 Q1017
03:25
V
13 °C 10 km+ - 090°   090° 17 kt METAR EHHW 160125Z AUTO 09017KT 050V120 9999 NSC 13/09 Q1017
02:55
V
13 °C 10 km+ - 090°   090° 18 kt METAR EHHW 160055Z AUTO 09018KT 060V120 9999 NSC 13/09 Q1017
02:25
V
12 °C 10 km+ - 090°   090° 18 kt METAR EHHW 160025Z AUTO 09018KT 060V120 9999 NSC 12/10 Q1017
01:55
V
11 °C 10 km+ - 080°   080° 21 kt METAR EHHW 152355Z AUTO 08021KT 9999 NSC 11/10 Q1018
01:25
V
11 °C 10 km+ - 080°   080° 14 kt METAR EHHW 152325Z AUTO 08014KT 040V140 9999 NSC 11/10 Q1018
00:55
V
11 °C 10 km+ - 070°   070° 13 kt METAR EHHW 152255Z AUTO 07013KT 020V140 9999 NSC 11/09 Q1018
00:25
V
12 °C 10 km+ - Var   Var 9 kt METAR EHHW 152225Z AUTO VRB09KT 9999 NSC 12/09 Q1019

15 mei 2022

Tijd Code Weer Temp. Zicht Wolken Wind METAR/SPECI
23:55
V
11 °C 10 km+ - 070°   070° 9 kt METAR EHHW 152155Z AUTO 07009KT 030V140 9999 NSC 11/09 Q1019
23:25
V
11 °C 10 km+ - Var   Var 9 kt METAR EHHW 152125Z AUTO VRB09KT 9999 NSC 11/09 Q1019
22:55
V
11 °C 10 km+ - 070°   070° 9 kt METAR EHHW 152055Z AUTO 07009KT 020V150 9999 NSC 11/09 Q1019
22:25
V
11 °C 10 km+ - 070°   070° 9 kt METAR EHHW 152025Z AUTO 07009KT 030V200 9999 NSC 11/09 Q1019
21:55
V
11 °C 10 km+ - Var   Var 9 kt METAR EHHW 151955Z AUTO VRB09KT 9999 NSC 11/09 Q1019
21:25
V
11 °C 10 km+ - Var   Var 10 kt METAR EHHW 151925Z AUTO VRB10KT 9999 NSC 11/09 Q1019
20:55
V
11 °C 10 km+ - 080°   080° 12 kt METAR EHHW 151855Z AUTO 08012KT 010V150 9999 NSC 11/09 Q1019
20:25
V
11 °C 10 km+ - Var   Var 11 kt METAR EHHW 151825Z AUTO VRB11KT 9999 NSC 11/09 Q1019
19:55
V
11 °C 10 km+ - Var   Var 10 kt METAR EHHW 151755Z AUTO VRB10KT 9999 NSC 11/09 Q1019
19:25
V
11 °C 10 km+ - 070°   070° 9 kt METAR EHHW 151725Z AUTO 07009KT 010V140 9999 NSC 11/09 Q1020
18:55
V
11 °C 10 km+ - 070°   070° 8 kt METAR EHHW 151655Z AUTO 07008KT 340V150 9999 NSC 11/09 Q1020
18:25
V
11 °C 10 km+ - Var   Var 10 kt METAR EHHW 151625Z AUTO VRB10KT 9999 NSC 11/09 Q1020
17:55
V
10 °C 10 km+ - Var   Var 10 kt METAR EHHW 151555Z AUTO VRB10KT 9999 FEW006/// 10/09 Q1020
17:25
V
10 °C 10 km+ - Var   Var 9 kt METAR EHHW 151525Z AUTO VRB09KT 9999 FEW006/// 10/09 Q1021
16:55
V
10 °C 10 km+ - Var   Var 9 kt METAR EHHW 151455Z AUTO VRB09KT 9999 NSC 10/09 Q1021
16:25
V
10 °C 10 km+ - 070°   070° 8 kt METAR EHHW 151425Z AUTO 07008KT 9999 NSC 10/08 Q1021
15:55
V
11 °C 10 km+ - Var   Var 10 kt METAR EHHW 151355Z AUTO VRB10KT 9999 NSC 11/08 Q1021
15:25
V
11 °C 10 km+ - 080°   080° 12 kt METAR EHHW 151325Z AUTO 08012KT 010V150 9999 NSC 11/09 Q1021
14:55
V
11 °C 10 km+ - 080°   080° 12 kt METAR EHHW 151255Z AUTO 08012KT 060V130 9999 FEW004/// 11/09 Q1022
14:25
V
11 °C 10 km+ - 090°   090° 10 kt METAR EHHW 151225Z AUTO 09010KT 060V150 9999 FEW003/// SCT004/// 11/09 Q1022
13:55
V
11 °C 10 km+ - Var   Var 8 kt METAR EHHW 151155Z AUTO VRB08KT 9999 FEW001/// 11/09 Q1022
13:25
V
11 °C 10 km+ - 080°   080° 8 kt METAR EHHW 151125Z AUTO 08008KT 050V130 9999 NSC 11/09 Q1022
12:55
V
11 °C 10 km+ - 090°   090° 7 kt METAR EHHW 151055Z AUTO 09007KT 050V130 9999 NSC 11/10 Q1023
12:25
V
11 °C 10 km+ - 090°   090° 7 kt METAR EHHW 151025Z AUTO 09007KT 050V150 9999 NSC 11/10 Q1022
11:55
V
11 °C 10 km+ - 100°   100° 7 kt METAR EHHW 150955Z AUTO 10007KT 9999 NSC 11/09 Q1023
11:25
V
11 °C 10 km+ - 100°   100° 4 kt METAR EHHW 150925Z AUTO 10004KT 080V140 9999 NSC 11/09 Q1023
10:55
V
11 °C 10 km+ - 100°   100° 6 kt METAR EHHW 150855Z AUTO 10006KT 9999 NSC 11/09 Q1022
10:25
V
11 °C 10 km+ - 100°   100° 6 kt METAR EHHW 150825Z AUTO 10006KT 9999 NSC 11/09 Q1022
09:55
V
11 °C 10 km+ - 110°   110° 5 kt METAR EHHW 150755Z AUTO 11005KT 080V140 9999 NSC 11/09 Q1022
09:25
V
11 °C 10 km+ - 110°   110° 6 kt METAR EHHW 150725Z AUTO 11006KT 070V140 9999 NCD 11/09 Q1022
08:55
V
11 °C 10 km+ - 100°   100° 5 kt METAR EHHW 150655Z AUTO 10005KT 070V130 9999 NCD 11/08 Q1022
08:25
V
11 °C 10 km+ - 120°   120° 5 kt METAR EHHW 150625Z AUTO 12005KT 070V150 9999 NCD 11/08 Q1022
07:55
V
11 °C 10 km+ - 130°   130° 6 kt METAR EHHW 150555Z AUTO 13006KT 9999 NSC 11/09 Q1022
07:25
V
11 °C 10 km+ - 150°   150° 5 kt METAR EHHW 150525Z AUTO 15005KT 100V190 9999 NSC 11/09 Q1022
06:55
V
11 °C 10 km+ - 150°   150° 5 kt METAR EHHW 150455Z AUTO 15005KT 9999 NSC 11/09 Q1022
Oudere gegevens

Installeer onze app

Gemakkelijke toegang tot al het luchtvaartweer op je mobiele telefoon en tablet.
Met veel functies die niet op de website beschikbaar zijn, zoals offline ondersteuning en een persoonlijke lijst van vliegvelden.